createdAt,value
2018-06-21T00:00:49.209Z,23.80
2018-06-21T00:02:51.274Z,22.83
2018-06-21T00:04:53.365Z,23.00
2018-06-21T00:06:55.413Z,21.43
2018-06-21T00:08:57.489Z,25.30
2018-06-21T00:10:59.755Z,23.63
2018-06-21T00:13:01.874Z,23.20
2018-06-21T00:15:03.945Z,22.73
2018-06-21T00:17:06.067Z,22.70
2018-06-21T00:19:08.131Z,23.13
2018-06-21T00:21:10.202Z,22.57
2018-06-21T00:23:12.549Z,20.50
2018-06-21T00:25:14.670Z,22.13
2018-06-21T00:27:16.757Z,20.27
2018-06-21T00:29:18.889Z,21.30
2018-06-21T00:31:20.934Z,20.57
2018-06-21T00:33:22.999Z,20.73
2018-06-21T00:35:25.108Z,19.03
2018-06-21T00:37:27.172Z,22.43
2018-06-21T00:39:29.269Z,20.17
2018-06-21T00:41:31.618Z,21.13
2018-06-21T00:43:33.726Z,23.23
2018-06-21T00:45:35.796Z,21.60
2018-06-21T00:47:38.288Z,20.67
2018-06-21T00:49:40.364Z,19.57
2018-06-21T00:51:42.611Z,21.27
2018-06-21T00:53:44.693Z,20.70
2018-06-21T00:55:58.545Z,20.40
2018-06-21T00:58:00.627Z,19.93
2018-06-21T01:00:02.769Z,19.90
2018-06-21T01:02:04.861Z,21.37
2018-06-21T01:04:06.981Z,19.80
2018-06-21T01:06:09.045Z,20.90
2018-06-21T01:08:11.122Z,21.83
2018-06-21T01:10:13.197Z,22.00
2018-06-21T01:12:19.917Z,22.67
2018-06-21T01:14:22.001Z,20.20
2018-06-21T01:16:24.069Z,21.30
2018-06-21T01:18:26.391Z,24.97
2018-06-21T01:20:28.469Z,22.53
2018-06-21T01:22:30.528Z,23.67
2018-06-21T01:24:32.605Z,22.83
2018-06-21T01:26:34.693Z,22.20
2018-06-21T01:28:37.561Z,24.07
2018-06-21T01:30:39.632Z,23.80
2018-06-21T01:32:41.724Z,24.20
2018-06-21T01:34:43.786Z,23.73
2018-06-21T01:36:45.845Z,23.53
2018-06-21T01:38:47.974Z,23.17
2018-06-21T01:40:50.071Z,22.70
2018-06-21T01:42:52.178Z,23.00
2018-06-21T01:44:54.261Z,22.37
2018-06-21T01:46:56.357Z,23.10
2018-06-21T01:48:58.418Z,23.43
2018-06-21T01:51:00.501Z,24.10
2018-06-21T01:53:02.830Z,23.53
2018-06-21T01:55:04.902Z,21.70
2018-06-21T01:57:07.156Z,23.57
2018-06-21T01:59:09.238Z,23.07
2018-06-21T02:01:11.309Z,23.10
2018-06-21T02:03:13.368Z,22.33
2018-06-21T02:05:15.721Z,22.57
2018-06-21T02:07:17.796Z,22.77
2018-06-21T02:09:19.894Z,22.43
2018-06-21T02:11:22.140Z,24.10
2018-06-21T02:13:24.214Z,21.83
2018-06-21T02:15:26.303Z,22.27
2018-06-21T02:17:28.383Z,22.17
2018-06-21T02:19:30.494Z,22.23
2018-06-21T02:21:32.606Z,22.03
2018-06-21T02:23:34.712Z,24.50
2018-06-21T02:27:45.797Z,24.60
2018-06-21T02:29:47.861Z,23.27
2018-06-21T02:31:49.963Z,21.13
2018-06-21T02:33:52.050Z,23.20
2018-06-21T02:35:54.142Z,23.77
2018-06-21T02:37:56.214Z,22.80
2018-06-21T02:39:58.310Z,22.73
2018-06-21T02:42:00.370Z,21.67
2018-06-21T02:44:02.482Z,22.90
2018-06-21T02:46:04.638Z,23.00
2018-06-21T02:48:06.702Z,22.43
2018-06-21T02:50:08.842Z,22.50
2018-06-21T02:52:10.950Z,22.83
2018-06-21T02:54:13.065Z,22.57
2018-06-21T02:56:15.198Z,22.67
2018-06-21T02:58:17.315Z,22.83
2018-06-21T03:00:19.396Z,22.90
2018-06-21T03:02:21.456Z,20.80
2018-06-21T03:04:23.524Z,21.23
2018-06-21T03:06:25.575Z,20.47
2018-06-21T03:08:28.669Z,21.47
2018-06-21T03:10:30.746Z,19.67
2018-06-21T03:12:32.834Z,15.80
2018-06-21T03:14:34.898Z,14.20
2018-06-21T03:16:36.965Z,12.77
2018-06-21T03:18:39.037Z,13.40
2018-06-21T03:20:41.119Z,13.20
2018-06-21T03:22:43.187Z,12.57
2018-06-21T03:24:45.295Z,13.80
2018-06-21T03:26:47.374Z,13.40
2018-06-21T03:28:49.443Z,13.23
2018-06-21T03:30:51.550Z,9.93
2018-06-21T03:32:53.657Z,7.90
2018-06-21T03:34:55.733Z,8.10
2018-06-21T03:36:57.854Z,6.10
2018-06-21T03:38:59.941Z,4.80
2018-06-21T03:41:02.042Z,3.90
2018-06-21T03:43:04.117Z,3.80
2018-06-21T03:45:06.216Z,11.50
2018-06-21T03:47:08.320Z,16.77
2018-06-21T03:49:10.382Z,12.17
2018-06-21T03:51:12.481Z,4.57
2018-06-21T03:53:14.552Z,5.37
2018-06-21T03:55:16.610Z,5.50
2018-06-21T03:57:18.709Z,6.30
2018-06-21T03:59:20.781Z,6.60
2018-06-21T04:01:22.849Z,6.00
2018-06-21T04:03:24.931Z,7.10
2018-06-21T04:05:27.029Z,7.90
2018-06-21T04:07:29.089Z,7.70
2018-06-21T04:09:31.153Z,8.10
2018-06-21T04:11:33.249Z,8.67
2018-06-21T04:13:35.357Z,8.93
2018-06-21T04:15:38.513Z,8.50
2018-06-21T04:17:40.593Z,8.80
2018-06-21T04:19:42.662Z,7.90
2018-06-21T04:21:44.761Z,7.73
2018-06-21T04:23:46.825Z,7.20
2018-06-21T04:25:48.897Z,7.80
2018-06-21T04:27:50.954Z,7.57
2018-06-21T04:29:53.051Z,6.50
2018-06-21T04:31:55.113Z,6.23
2018-06-21T04:33:57.724Z,5.80
2018-06-21T04:35:59.809Z,4.87
2018-06-21T04:38:01.883Z,5.47
2018-06-21T04:40:03.993Z,4.80
2018-06-21T04:42:06.161Z,5.00
2018-06-21T04:44:08.241Z,4.90
2018-06-21T04:46:10.322Z,4.47
2018-06-21T04:48:12.402Z,4.47
2018-06-21T04:50:14.509Z,4.80
2018-06-21T04:52:16.569Z,4.70
2018-06-21T04:54:18.629Z,5.27
2018-06-21T04:56:20.769Z,5.40
2018-06-21T04:58:22.848Z,5.77
2018-06-21T05:00:24.909Z,5.20
2018-06-21T05:02:27.045Z,5.30
2018-06-21T05:04:29.137Z,5.53
2018-06-21T05:06:31.207Z,6.03
2018-06-21T05:08:33.289Z,4.80
2018-06-21T05:10:35.806Z,4.77
2018-06-21T05:12:37.865Z,5.60
2018-06-21T05:14:40.006Z,5.13
2018-06-21T05:16:42.085Z,5.70
2018-06-21T05:18:44.918Z,5.90
2018-06-21T05:20:46.991Z,5.70
2018-06-21T05:22:49.216Z,6.13
2018-06-21T05:24:51.376Z,5.13
2018-06-21T05:26:53.470Z,6.20
2018-06-21T05:28:56.323Z,6.20
2018-06-21T05:30:58.391Z,5.13
2018-06-21T05:33:00.501Z,5.57
2018-06-21T05:35:02.628Z,4.97
2018-06-21T05:37:04.857Z,5.07
2018-06-21T05:39:07.972Z,4.40
2018-06-21T05:41:10.050Z,4.90
2018-06-21T05:43:12.141Z,4.60
2018-06-21T05:45:14.239Z,4.30
2018-06-21T05:47:16.329Z,4.60
2018-06-21T05:49:18.381Z,4.50
2018-06-21T05:51:20.454Z,4.40
2018-06-21T05:53:22.585Z,4.47
2018-06-21T05:55:24.742Z,4.03
2018-06-21T05:57:26.807Z,4.57
2018-06-21T05:59:28.898Z,5.20
2018-06-21T06:01:30.971Z,4.10
2018-06-21T06:03:33.687Z,4.50
2018-06-21T06:05:35.783Z,4.23
2018-06-21T06:07:38.564Z,44.07
2018-06-21T06:09:40.694Z,9.03
2018-06-21T06:11:43.220Z,6.43
2018-06-21T06:13:45.283Z,5.40
2018-06-21T06:15:47.658Z,40.43
2018-06-21T06:17:49.746Z,22.10
2018-06-21T06:19:51.831Z,10.30
2018-06-21T06:21:53.887Z,9.90
2018-06-21T06:23:55.971Z,19.53
2018-06-21T06:25:58.032Z,19.73
2018-06-21T06:28:00.138Z,4.47
2018-06-21T06:30:02.237Z,5.30
2018-06-21T06:32:04.409Z,6.87
2018-06-21T06:34:06.530Z,11.40
2018-06-21T06:36:08.603Z,9.60
2018-06-21T06:38:10.701Z,8.03
2018-06-21T06:40:19.900Z,5.40
2018-06-21T06:42:22.329Z,5.50
2018-06-21T06:44:24.432Z,8.10
2018-06-21T06:46:26.482Z,75.47
2018-06-21T06:48:28.654Z,7.90
2018-06-21T06:50:31.215Z,16.10
2018-06-21T06:52:33.353Z,4.50
2018-06-21T06:54:35.489Z,4.30
2018-06-21T06:56:38.170Z,3.87
2018-06-21T06:58:40.238Z,4.00
2018-06-21T07:00:42.597Z,2.80
2018-06-21T07:02:44.667Z,3.10
2018-06-21T07:04:47.202Z,3.23
2018-06-21T07:06:49.374Z,3.67
2018-06-21T07:08:51.477Z,14.23
2018-06-21T07:10:53.538Z,6.00
2018-06-21T07:12:56.258Z,6.00
2018-06-21T07:14:58.498Z,7.00
2018-06-21T07:17:00.581Z,4.00
2018-06-21T07:19:03.090Z,3.43
2018-06-21T07:21:05.350Z,3.30
2018-06-21T07:23:07.718Z,3.30
2018-06-21T07:25:10.010Z,3.17
2018-06-21T07:27:12.396Z,2.80
2018-06-21T07:29:14.558Z,4.40
2018-06-21T07:31:17.096Z,4.03
2018-06-21T07:33:19.206Z,3.40
2018-06-21T07:35:21.274Z,4.27
2018-06-21T07:37:23.354Z,3.70
2018-06-21T07:39:32.447Z,3.80
2018-06-21T07:41:34.509Z,4.40
2018-06-21T07:43:36.590Z,3.80
2018-06-21T07:45:38.720Z,3.63
2018-06-21T07:47:41.025Z,3.40
2018-06-21T07:49:43.102Z,3.83
2018-06-21T07:51:45.174Z,4.10
2018-06-21T07:53:47.279Z,3.70
2018-06-21T07:55:49.344Z,4.37
2018-06-21T07:57:51.767Z,3.80
2018-06-21T07:59:54.206Z,6.67
2018-06-21T08:01:56.308Z,11.03
2018-06-21T08:03:58.398Z,3.87
2018-06-21T08:06:00.914Z,4.97
2018-06-21T08:08:03.063Z,3.90
2018-06-21T08:10:05.270Z,3.50
2018-06-21T08:12:07.370Z,3.40
2018-06-21T08:14:09.636Z,4.20
2018-06-21T08:16:11.763Z,4.20
2018-06-21T08:18:13.957Z,3.53
2018-06-21T08:20:16.107Z,3.20
2018-06-21T08:22:18.251Z,3.10
2018-06-21T08:24:20.357Z,3.30
2018-06-21T08:26:22.926Z,2.87
2018-06-21T08:28:25.067Z,2.80
2018-06-21T08:30:27.209Z,2.60
2018-06-21T08:32:29.442Z,3.00
2018-06-21T08:34:31.558Z,2.80
2018-06-21T08:36:33.739Z,3.20
2018-06-21T08:38:36.130Z,2.80
2018-06-21T08:40:38.236Z,2.77
2018-06-21T08:42:40.337Z,2.43
2018-06-21T08:44:42.632Z,5.50
2018-06-21T08:46:44.749Z,2.87
2018-06-21T08:48:46.903Z,2.60
2018-06-21T08:50:48.994Z,2.37
2018-06-21T08:52:51.103Z,3.73
2018-06-21T08:54:53.206Z,3.50
2018-06-21T08:56:55.656Z,8.90
2018-06-21T08:58:57.925Z,2.90
2018-06-21T09:01:00.207Z,2.63
2018-06-21T09:03:05.489Z,2.90
2018-06-21T09:05:07.693Z,3.10
2018-06-21T09:07:10.067Z,4.10
2018-06-21T09:09:12.233Z,2.33
2018-06-21T09:11:14.384Z,2.40
2018-06-21T09:13:16.558Z,2.57
2018-06-21T09:15:18.749Z,3.33
2018-06-21T09:17:20.883Z,2.90
2018-06-21T09:19:23.394Z,3.00
2018-06-21T09:21:25.587Z,2.33
2018-06-21T09:23:27.765Z,2.53
2018-06-21T09:25:29.954Z,2.30
2018-06-21T09:27:32.106Z,3.53
2018-06-21T09:29:34.767Z,2.43
2018-06-21T09:31:36.982Z,2.70
2018-06-21T09:33:39.133Z,2.63
2018-06-21T09:35:41.273Z,2.23
2018-06-21T09:37:49.208Z,2.57
2018-06-21T09:39:57.102Z,2.73
2018-06-21T09:42:04.875Z,2.80
2018-06-21T09:44:12.780Z,3.27
2018-06-21T09:47:24.452Z,3.07
2018-06-21T09:49:29.338Z,2.60
2018-06-21T09:51:31.510Z,2.90
2018-06-21T09:53:33.674Z,2.80
2018-06-21T09:55:36.059Z,2.70
2018-06-21T09:57:38.286Z,3.73
2018-06-21T09:59:40.374Z,2.90
2018-06-21T10:01:42.494Z,2.53
2018-06-21T10:03:44.638Z,2.77
2018-06-21T10:05:46.788Z,2.73
2018-06-21T10:07:48.953Z,2.83
2018-06-21T10:09:51.106Z,2.53
2018-06-21T10:11:53.271Z,2.50
2018-06-21T10:13:55.444Z,3.47
2018-06-21T10:15:57.827Z,3.50
2018-06-21T10:18:02.190Z,2.80
2018-06-21T10:20:04.384Z,3.43
2018-06-21T10:22:07.070Z,2.93
2018-06-21T10:24:09.286Z,2.50
2018-06-21T10:26:11.446Z,2.73
2018-06-21T10:28:13.626Z,2.73
2018-06-21T10:30:15.817Z,2.43
2018-06-21T10:32:20.392Z,2.30
2018-06-21T10:34:22.770Z,2.40
2018-06-21T10:36:25.255Z,3.30
2018-06-21T10:38:34.556Z,2.53
2018-06-21T10:40:39.019Z,2.47
2018-06-21T10:42:41.417Z,2.77
2018-06-21T10:44:44.068Z,3.20
2018-06-21T10:46:46.376Z,4.43
2018-06-21T10:48:48.987Z,2.07
2018-06-21T10:50:52.054Z,2.90
2018-06-21T10:52:54.257Z,2.77
2018-06-21T10:54:56.536Z,3.07
2018-06-21T10:57:00.122Z,3.47
2018-06-21T10:59:02.418Z,2.80
2018-06-21T11:01:04.619Z,2.93
2018-06-21T11:03:06.790Z,2.87
2018-06-21T11:05:09.059Z,2.70
2018-06-21T11:07:11.218Z,3.30
2018-06-21T11:09:13.481Z,2.63
2018-06-21T11:11:15.766Z,3.03
2018-06-21T11:13:18.042Z,2.97
2018-06-21T11:15:20.250Z,2.80
2018-06-21T11:17:22.487Z,9.17
2018-06-21T11:19:24.703Z,10.40
2018-06-21T11:21:27.346Z,2.70
2018-06-21T11:23:29.554Z,2.80
2018-06-21T11:25:31.790Z,2.87
2018-06-21T11:27:34.151Z,3.33
2018-06-21T11:29:36.306Z,3.10
2018-06-21T11:31:38.535Z,3.30
2018-06-21T11:33:40.762Z,3.07
2018-06-21T11:35:43.054Z,2.70
2018-06-21T11:37:45.310Z,2.50
2018-06-21T11:39:47.558Z,2.53
2018-06-21T11:41:50.076Z,2.43
2018-06-21T11:43:52.325Z,2.50
2018-06-21T11:45:54.613Z,2.23
2018-06-21T11:47:56.851Z,3.40
2018-06-21T11:49:59.103Z,2.53
2018-06-21T11:52:01.409Z,2.43
2018-06-21T11:54:03.678Z,2.80
2018-06-21T11:56:05.926Z,3.27
2018-06-21T11:58:08.306Z,3.00
2018-06-21T12:00:10.640Z,2.40
2018-06-21T12:02:12.906Z,2.30
2018-06-21T12:04:15.220Z,2.00
2018-06-21T12:06:17.514Z,2.80
2018-06-21T12:08:19.929Z,2.73
2018-06-21T12:10:22.409Z,2.37
2018-06-21T12:12:24.804Z,3.50
2018-06-21T12:14:28.242Z,6.60
2018-06-21T12:16:30.879Z,2.60
2018-06-21T12:18:33.678Z,2.17
2018-06-21T12:20:36.298Z,2.50
2018-06-21T12:22:38.880Z,2.30
2018-06-21T12:24:42.299Z,2.93
2018-06-21T12:26:44.809Z,2.20
2018-06-21T12:28:50.472Z,2.40
2018-06-21T12:30:53.054Z,2.27
2018-06-21T12:32:56.361Z,2.00
2018-06-21T12:34:59.132Z,2.37
2018-06-21T12:37:01.872Z,1.77
2018-06-21T12:39:07.459Z,2.17
2018-06-21T12:41:13.774Z,2.40
2018-06-21T12:43:18.863Z,2.20
2018-06-21T12:45:29.773Z,2.40
2018-06-21T12:47:32.317Z,4.60
2018-06-21T12:49:34.782Z,3.70
2018-06-21T12:51:39.146Z,3.83
2018-06-21T12:53:41.806Z,5.67
2018-06-21T12:55:44.084Z,10.67
2018-06-21T12:57:46.342Z,2.43
2018-06-21T12:59:48.540Z,2.03
2018-06-21T13:01:50.689Z,2.10
2018-06-21T13:03:52.917Z,2.00
2018-06-21T13:05:55.084Z,1.53
2018-06-21T13:07:57.243Z,1.40
2018-06-21T13:10:11.244Z,1.93
2018-06-21T13:12:29.186Z,1.73
2018-06-21T13:14:31.377Z,1.50
2018-06-21T13:16:33.645Z,2.00
2018-06-21T13:18:35.891Z,1.50
2018-06-21T13:20:38.182Z,1.53
2018-06-21T13:22:40.417Z,1.47
2018-06-21T13:24:43.133Z,1.30
2018-06-21T13:26:45.306Z,1.57
2018-06-21T13:28:47.450Z,1.40
2018-06-21T13:30:49.606Z,1.30
2018-06-21T13:32:52.050Z,1.30
2018-06-21T13:34:54.210Z,6.50
2018-06-21T13:36:56.462Z,3.90
2018-06-21T13:38:58.723Z,1.80
2018-06-21T13:41:00.927Z,3.47
2018-06-21T13:43:03.192Z,1.30
2018-06-21T13:45:05.454Z,1.70
2018-06-21T13:47:07.704Z,1.80
2018-06-21T13:49:09.941Z,1.40
2018-06-21T13:51:12.133Z,1.50
2018-06-21T13:53:14.391Z,1.60
2018-06-21T13:55:16.578Z,1.90
2018-06-21T13:57:18.749Z,1.50
2018-06-21T13:59:20.968Z,1.60
2018-06-21T14:01:23.141Z,1.70
2018-06-21T14:03:25.353Z,2.33
2018-06-21T14:05:27.514Z,1.70
2018-06-21T14:07:29.770Z,1.50
2018-06-21T14:09:32.130Z,1.60
2018-06-21T14:11:34.332Z,1.77
2018-06-21T14:13:36.683Z,1.70
2018-06-21T14:15:39.041Z,1.50
2018-06-21T14:17:41.253Z,1.60
2018-06-21T14:19:43.396Z,1.60
2018-06-21T14:21:45.717Z,2.20
2018-06-21T14:23:47.846Z,1.90
2018-06-21T14:25:50.088Z,1.87
2018-06-21T14:27:52.310Z,1.90
2018-06-21T14:29:54.649Z,2.23
2018-06-21T14:31:58.008Z,1.80
2018-06-21T14:34:00.255Z,1.63
2018-06-21T14:36:04.162Z,1.77
2018-06-21T14:38:08.019Z,1.60
2018-06-21T14:40:10.310Z,1.83
2018-06-21T14:42:12.926Z,2.47
2018-06-21T14:44:15.261Z,2.20
2018-06-21T14:46:17.442Z,2.10
2018-06-21T14:48:19.670Z,1.70
2018-06-21T14:50:25.129Z,1.80
2018-06-21T14:52:28.568Z,1.70
2018-06-21T14:54:32.881Z,2.00
2018-06-21T14:56:37.768Z,1.53
2018-06-21T14:58:42.915Z,1.60
2018-06-21T15:00:46.826Z,1.40
2018-06-21T15:03:04.758Z,1.50
2018-06-21T15:05:09.739Z,2.60
2018-06-21T15:07:14.470Z,2.90
2018-06-21T15:09:19.535Z,1.70
2018-06-21T15:11:33.052Z,1.90
2018-06-21T15:13:35.718Z,1.70
2018-06-21T15:15:38.153Z,1.87
2018-06-21T15:17:43.722Z,1.60
2018-06-21T15:19:46.998Z,1.60
2018-06-21T15:21:49.671Z,1.50
2018-06-21T15:23:55.240Z,2.60
2018-06-21T15:25:58.038Z,1.93
2018-06-21T15:28:01.310Z,1.60
2018-06-21T15:30:03.846Z,1.70
2018-06-21T15:32:06.019Z,1.90
2018-06-21T15:34:08.164Z,1.90
2018-06-21T15:36:10.340Z,1.60
2018-06-21T15:38:13.862Z,2.00
2018-06-21T15:40:16.359Z,1.90
2018-06-21T15:42:19.394Z,2.10
2018-06-21T15:44:21.637Z,1.93
2018-06-21T15:46:23.805Z,2.10
2018-06-21T15:48:26.035Z,2.27
2018-06-21T15:50:28.194Z,2.10
2018-06-21T15:52:30.444Z,2.37
2018-06-21T15:54:32.629Z,2.57
2018-06-21T15:56:34.804Z,2.13
2018-06-21T15:58:37.373Z,2.17
2018-06-21T16:00:39.510Z,2.27
2018-06-21T16:02:42.495Z,2.27
2018-06-21T16:04:46.645Z,1.80
2018-06-21T16:06:48.936Z,2.10
2018-06-21T16:08:51.864Z,1.93
2018-06-21T16:10:56.198Z,2.13
2018-06-21T16:12:58.590Z,2.17
2018-06-21T16:15:00.970Z,2.33
2018-06-21T16:17:03.142Z,2.87
2018-06-21T16:19:05.306Z,2.60
2018-06-21T16:21:07.499Z,2.60
2018-06-21T16:25:18.424Z,2.60
2018-06-21T16:27:20.630Z,2.30
2018-06-21T16:29:23.117Z,2.53
2018-06-21T16:31:25.338Z,2.63
2018-06-21T16:33:34.386Z,3.37
2018-06-21T16:35:36.509Z,4.00
2018-06-21T16:37:40.335Z,3.23
2018-06-21T16:39:42.830Z,2.60
2018-06-21T16:41:45.232Z,43.20
2018-06-21T16:43:50.207Z,3.00
2018-06-21T16:45:53.759Z,3.10
2018-06-21T16:47:58.005Z,4.00
2018-06-21T16:50:00.397Z,14.03
2018-06-21T16:52:02.810Z,4.57
2018-06-21T16:54:05.122Z,2.40
2018-06-21T16:56:07.302Z,2.47
2018-06-21T16:58:09.466Z,2.70
2018-06-21T17:00:11.694Z,2.40
2018-06-21T17:02:13.981Z,2.50
2018-06-21T17:04:16.174Z,3.07
2018-06-21T17:06:18.402Z,2.70
2018-06-21T17:08:20.547Z,2.50
2018-06-21T17:10:22.775Z,3.33
2018-06-21T17:12:24.960Z,2.73
2018-06-21T17:14:27.179Z,3.50
2018-06-21T17:16:29.325Z,9.33
2018-06-21T17:18:31.634Z,3.30
2018-06-21T17:20:33.815Z,3.70
2018-06-21T17:22:36.134Z,11.77
2018-06-21T17:24:38.335Z,5.17
2018-06-21T17:26:40.476Z,2.53
2018-06-21T17:28:42.642Z,3.17
2018-06-21T17:30:44.828Z,2.83
2018-06-21T17:32:47.003Z,2.70
2018-06-21T17:34:49.175Z,2.67
2018-06-21T17:36:51.352Z,2.40
2018-06-21T17:38:53.510Z,3.00
2018-06-21T17:40:55.798Z,2.83
2018-06-21T17:42:57.982Z,2.33
2018-06-21T17:45:00.144Z,2.87
2018-06-21T17:47:02.318Z,2.80
2018-06-21T17:49:04.922Z,2.70
2018-06-21T17:51:07.187Z,3.60
2018-06-21T17:53:09.349Z,2.87
2018-06-21T17:55:11.499Z,2.97
2018-06-21T17:57:13.690Z,2.60
2018-06-21T17:59:16.911Z,2.90
2018-06-21T18:01:19.087Z,2.70
2018-06-21T18:03:21.284Z,3.20
2018-06-21T18:05:23.437Z,3.30
2018-06-21T18:07:25.621Z,3.20
2018-06-21T18:09:27.901Z,3.70
2018-06-21T18:11:30.090Z,3.20
2018-06-21T18:13:32.288Z,2.80
2018-06-21T18:15:34.487Z,2.57
2018-06-21T18:17:36.637Z,3.53
2018-06-21T18:19:38.886Z,4.10
2018-06-21T18:21:41.018Z,4.03
2018-06-21T18:23:43.363Z,8.13
2018-06-21T18:25:45.572Z,2.90
2018-06-21T18:27:48.449Z,2.77
2018-06-21T18:29:50.640Z,3.33
2018-06-21T18:31:52.829Z,2.37
2018-06-21T18:33:55.127Z,2.80
2018-06-21T18:35:57.481Z,2.73
2018-06-21T18:37:59.642Z,3.00
2018-06-21T18:40:01.827Z,2.43
2018-06-21T18:42:03.956Z,2.73
2018-06-21T18:44:06.119Z,2.50
2018-06-21T18:46:08.317Z,2.43
2018-06-21T18:48:10.590Z,3.00
2018-06-21T18:50:12.872Z,2.63
2018-06-21T18:52:15.070Z,2.77
2018-06-21T18:54:17.234Z,2.60
2018-06-21T18:56:19.444Z,2.80
2018-06-21T18:58:21.682Z,2.73
2018-06-21T19:00:23.843Z,2.50
2018-06-21T19:02:26.067Z,2.77
2018-06-21T19:04:28.225Z,3.40
2018-06-21T19:06:36.134Z,2.60
2018-06-21T19:08:44.186Z,2.50
2018-06-21T19:10:52.047Z,2.80
2018-06-21T19:12:54.125Z,2.40
2018-06-21T19:14:56.397Z,2.73
2018-06-21T19:16:58.602Z,4.17
2018-06-21T19:19:00.795Z,2.83
2018-06-21T19:21:02.974Z,2.70
2018-06-21T19:23:05.323Z,2.13
2018-06-21T19:25:07.600Z,2.60
2018-06-21T19:27:09.959Z,2.57
2018-06-21T19:29:12.135Z,2.40
2018-06-21T19:31:14.370Z,2.80
2018-06-21T19:33:16.509Z,2.50
2018-06-21T19:35:18.678Z,2.90
2018-06-21T19:37:20.855Z,2.90
2018-06-21T19:39:23.127Z,2.67
2018-06-21T19:41:25.345Z,34.27
2018-06-21T19:43:27.638Z,14.60
2018-06-21T19:45:29.850Z,7.20
2018-06-21T19:47:32.025Z,9.30
2018-06-21T19:49:34.196Z,5.90
2018-06-21T19:51:36.435Z,4.87
2018-06-21T19:53:38.614Z,3.00
2018-06-21T19:55:40.772Z,2.90
2018-06-21T19:57:42.985Z,3.30
2018-06-21T19:59:45.248Z,3.30
2018-06-21T20:01:47.426Z,4.00
2018-06-21T20:03:49.571Z,4.17
2018-06-21T20:05:52.057Z,3.47
2018-06-21T20:07:54.558Z,3.17
2018-06-21T20:09:56.751Z,2.80
2018-06-21T20:11:58.904Z,2.97
2018-06-21T20:14:01.059Z,3.20
2018-06-21T20:16:03.234Z,3.17
2018-06-21T20:18:05.408Z,3.63
2018-06-21T20:20:13.359Z,2.90
2018-06-21T20:22:15.570Z,3.80
2018-06-21T20:24:17.730Z,4.10
2018-06-21T20:26:20.964Z,3.03
2018-06-21T20:28:23.184Z,2.80
2018-06-21T20:30:25.257Z,3.50
2018-06-21T20:32:27.418Z,4.00
2018-06-21T20:34:29.557Z,3.70
2018-06-21T20:36:31.710Z,4.17
2018-06-21T20:38:36.886Z,3.43
2018-06-21T20:41:18.907Z,3.23
2018-06-21T20:43:37.990Z,2.90
2018-06-21T20:54:10.874Z,3.13
2018-06-21T20:56:20.783Z,3.20
2018-06-21T20:58:28.549Z,3.57
2018-06-21T21:00:30.696Z,3.47
2018-06-21T21:02:32.873Z,4.37
2018-06-21T21:05:08.691Z,2.83
2018-06-21T21:07:10.895Z,3.80
2018-06-21T21:09:13.286Z,2.90
2018-06-21T21:11:38.260Z,3.43
2018-06-21T21:13:41.006Z,4.73
2018-06-21T21:15:43.451Z,3.30
2018-06-21T21:17:45.884Z,3.33
2018-06-21T21:19:49.079Z,3.10
2018-06-21T21:21:51.491Z,4.20
2018-06-21T21:23:53.790Z,3.37
2018-06-21T21:25:56.471Z,2.97
2018-06-21T21:27:58.661Z,4.13
2018-06-21T21:30:00.734Z,3.40
2018-06-21T21:32:02.840Z,3.80
2018-06-21T21:34:05.007Z,3.90
2018-06-21T21:36:07.117Z,3.73
2018-06-21T21:38:09.237Z,26.77
2018-06-21T21:40:11.359Z,4.67
2018-06-21T21:42:13.482Z,5.00
2018-06-21T21:44:15.641Z,3.43
2018-06-21T21:46:17.783Z,4.40
2018-06-21T21:48:19.905Z,5.77
2018-06-21T21:50:22.042Z,3.37
2018-06-21T21:52:24.202Z,4.20
2018-06-21T21:54:26.461Z,3.90
2018-06-21T21:56:28.579Z,4.23
2018-06-21T21:58:30.727Z,4.20
2018-06-21T22:00:49.070Z,3.63
2018-06-21T22:02:51.151Z,3.90
2018-06-21T22:04:53.220Z,4.30
2018-06-21T22:06:55.348Z,5.43
2018-06-21T22:08:57.410Z,3.77
2018-06-21T22:10:59.493Z,4.80
2018-06-21T22:13:01.640Z,4.00
2018-06-21T22:15:03.735Z,3.93
2018-06-21T22:17:05.808Z,4.13
2018-06-21T22:19:08.114Z,4.30
2018-06-21T22:21:10.166Z,3.50
2018-06-21T22:23:12.231Z,3.70
2018-06-21T22:25:14.302Z,3.77
2018-06-21T22:27:16.355Z,3.90
2018-06-21T22:29:18.429Z,4.30
2018-06-21T22:31:20.498Z,4.63
2018-06-21T22:33:22.563Z,4.53
2018-06-21T22:35:24.613Z,3.87
2018-06-21T22:37:26.661Z,4.20
2018-06-21T22:39:28.733Z,4.20
2018-06-21T22:41:30.785Z,3.87
2018-06-21T22:43:32.845Z,3.90
2018-06-21T22:45:35.302Z,4.70
2018-06-21T22:47:37.541Z,4.00
2018-06-21T22:49:39.599Z,3.83
2018-06-21T22:51:41.882Z,4.10
2018-06-21T22:53:43.933Z,3.80
2018-06-21T22:55:45.993Z,3.00
2018-06-21T22:57:48.074Z,3.43
2018-06-21T22:59:50.145Z,4.80
2018-06-21T23:01:52.193Z,4.23
2018-06-21T23:03:54.297Z,4.87
2018-06-21T23:05:56.342Z,3.80
2018-06-21T23:07:58.417Z,4.53
2018-06-21T23:10:00.467Z,3.50
2018-06-21T23:12:02.562Z,4.00
2018-06-21T23:14:04.641Z,3.63
2018-06-21T23:16:06.697Z,3.60
2018-06-21T23:18:08.787Z,4.10
2018-06-21T23:20:10.851Z,3.10
2018-06-21T23:22:12.929Z,3.97
2018-06-21T23:24:14.985Z,3.43
2018-06-21T23:26:17.033Z,3.50
2018-06-21T23:28:19.094Z,3.40
2018-06-21T23:30:21.158Z,3.30
2018-06-21T23:32:23.206Z,3.73
2018-06-21T23:34:25.251Z,3.13
2018-06-21T23:36:27.309Z,3.53
2018-06-21T23:38:29.367Z,3.43
2018-06-21T23:40:31.402Z,3.20
2018-06-21T23:42:33.486Z,3.10
2018-06-21T23:44:35.569Z,3.50
2018-06-21T23:46:37.783Z,3.77
2018-06-21T23:48:40.049Z,3.30
2018-06-21T23:50:42.092Z,2.80
2018-06-21T23:52:44.158Z,3.50
2018-06-21T23:54:46.223Z,3.37
2018-06-21T23:56:48.278Z,3.20
2018-06-21T23:58:50.349Z,2.67
